UAE180 EPWA-OMDB
Flight info
| Callsign | UAE180 |
|---|---|
| Flight time | 5h 40m |
| Altitude | 33000 |
| Route | XIMBA N195 NATEV DCT PODAN/N0483F360 DCT KEKED/N0481F350 DCT BADOR DCT APROB DCT ADORU UN739 TUMER UT38 VAPEK/N0491F370 UT38 VESAR DCT BALMA UR655 CAK UN310 LATEB N310 BASEM R785 RASLI DCT ULAKO DCT HIL DCT GAS DCT IVONU DCT RESAL DCT SITER DCT PEKEM DCT RIGIL G783 GIDIS DCT ANVIX |
| Aircraft | B77W/H-SDE1E2E3FGHIJ2J3J4J5M1RWXY/LB1D1 |
Departure
| Time | 2026-04-19 23:51 |
|---|---|
| Airport | Warsaw Chopin Airport (EPWA) |
Arrival
| Time | 2026-04-20 05:31 |
|---|---|
| Airport | Dubai International Airport (OMDB) |
| Time | Latitude | Longitude | Altitude | Speed | Heading |
|---|---|---|---|---|---|
| 2026-04-19 23:10 | 52.17336 | 20.96848 | 351 ft | 0 kts | 62° |
| 2026-04-19 23:39 | 52.17335 | 20.96846 | 344 ft | 1 kts | 62° |
| 2026-04-19 23:39 | 52.17324 | 20.96811 | 355 ft | 4 kts | 62° |
| 2026-04-19 23:40 | 52.17311 | 20.96774 | 354 ft | 4 kts | 50° |
| 2026-04-19 23:40 | 52.17291 | 20.96747 | 354 ft | 4 kts | 16° |
| 2026-04-19 23:40 | 52.17266 | 20.96746 | 354 ft | 4 kts | 338° |
| 2026-04-19 23:40 | 52.17257 | 20.96752 | 354 ft | 0 kts | 332° |
| 2026-04-19 23:44 | 52.17265 | 20.96746 | 354 ft | 4 kts | 332° |
| 2026-04-19 23:44 | 52.17294 | 20.96721 | 354 ft | 5 kts | 332° |
| 2026-04-19 23:44 | 52.17327 | 20.96691 | 353 ft | 6 kts | 331° |
| 2026-04-19 23:45 | 52.17364 | 20.96659 | 347 ft | 6 kts | 331° |
| 2026-04-19 23:45 | 52.17400 | 20.96626 | 354 ft | 6 kts | 331° |
| 2026-04-19 23:45 | 52.17436 | 20.96594 | 351 ft | 6 kts | 332° |
| 2026-04-19 23:45 | 52.17467 | 20.96550 | 353 ft | 6 kts | 295° |
| 2026-04-19 23:46 | 52.17461 | 20.96484 | 354 ft | 6 kts | 248° |
| 2026-04-19 23:46 | 52.17441 | 20.96422 | 352 ft | 6 kts | 242° |
| 2026-04-19 23:46 | 52.17446 | 20.96357 | 352 ft | 6 kts | 305° |
| 2026-04-19 23:46 | 52.17482 | 20.96318 | 354 ft | 6 kts | 331° |
| 2026-04-19 23:47 | 52.17520 | 20.96284 | 352 ft | 6 kts | 331° |
| 2026-04-19 23:47 | 52.17562 | 20.96247 | 352 ft | 7 kts | 331° |
| 2026-04-19 23:47 | 52.17608 | 20.96206 | 355 ft | 8 kts | 332° |
| 2026-04-19 23:47 | 52.17658 | 20.96162 | 351 ft | 8 kts | 331° |
| 2026-04-19 23:48 | 52.17710 | 20.96116 | 351 ft | 8 kts | 332° |
| 2026-04-19 23:48 | 52.17761 | 20.96070 | 355 ft | 8 kts | 331° |
| 2026-04-19 23:48 | 52.17806 | 20.96012 | 352 ft | 8 kts | 308° |
| 2026-04-19 23:48 | 52.17838 | 20.95931 | 352 ft | 8 kts | 302° |
| 2026-04-19 23:49 | 52.17869 | 20.95851 | 350 ft | 8 kts | 302° |
| 2026-04-19 23:49 | 52.17895 | 20.95766 | 354 ft | 8 kts | 280° |
| 2026-04-19 23:49 | 52.17877 | 20.95676 | 353 ft | 9 kts | 241° |
| 2026-04-19 23:49 | 52.17846 | 20.95612 | 353 ft | 6 kts | 205° |
| 2026-04-19 23:50 | 52.17806 | 20.95633 | 349 ft | 6 kts | 151° |
| 2026-04-19 23:50 | 52.17685 | 20.95743 | 349 ft | 48 kts | 151° |
| 2026-04-19 23:50 | 52.17159 | 20.96202 | 345 ft | 121 kts | 152° |
| 2026-04-19 23:50 | 52.16229 | 20.97012 | 357 ft | 178 kts | 151° |
| 2026-04-19 23:51 | 52.15075 | 20.97982 | 769 ft | 187 kts | 149° |
| 2026-04-19 23:51 | 52.13920 | 20.98976 | 1531 ft | 186 kts | 147° |
| 2026-04-19 23:51 | 52.12798 | 20.99972 | 2312 ft | 184 kts | 147° |
| 2026-04-19 23:51 | 52.11523 | 21.00776 | 2536 ft | 211 kts | 164° |
| 2026-04-19 23:52 | 52.10006 | 21.01220 | 2879 ft | 230 kts | 166° |
| 2026-04-19 23:52 | 52.08383 | 21.01755 | 3438 ft | 243 kts | 166° |
| 2026-04-19 23:52 | 52.06695 | 21.02325 | 4085 ft | 251 kts | 166° |
| 2026-04-19 23:52 | 52.04965 | 21.02913 | 4844 ft | 256 kts | 167° |
| 2026-04-19 23:53 | 52.03212 | 21.03510 | 5600 ft | 258 kts | 167° |
| 2026-04-19 23:53 | 52.01442 | 21.04171 | 6196 ft | 263 kts | 160° |
| 2026-04-19 23:53 | 51.99816 | 21.05621 | 6699 ft | 271 kts | 144° |
| 2026-04-19 23:53 | 51.98264 | 21.07393 | 7443 ft | 273 kts | 145° |
| 2026-04-19 23:54 | 51.96688 | 21.09154 | 8176 ft | 277 kts | 146° |
| 2026-04-19 23:54 | 51.95081 | 21.10933 | 8891 ft | 282 kts | 146° |
| 2026-04-19 23:54 | 51.93441 | 21.12737 | 9591 ft | 287 kts | 146° |
| 2026-04-19 23:54 | 51.91772 | 21.14564 | 10252 ft | 293 kts | 146° |
| 2026-04-19 23:55 | 51.90024 | 21.16471 | 10508 ft | 315 kts | 147° |
| 2026-04-19 23:55 | 51.88161 | 21.18494 | 10703 ft | 338 kts | 147° |
| 2026-04-19 23:55 | 51.86135 | 21.20688 | 10908 ft | 362 kts | 147° |
| 2026-04-19 23:55 | 51.84002 | 21.22998 | 11418 ft | 375 kts | 147° |
| 2026-04-19 23:56 | 51.81804 | 21.25375 | 12126 ft | 385 kts | 147° |
| 2026-04-19 23:56 | 51.79557 | 21.27801 | 13019 ft | 391 kts | 147° |
| 2026-04-19 23:56 | 51.77286 | 21.30249 | 14009 ft | 393 kts | 147° |
| 2026-04-19 23:56 | 51.74994 | 21.32715 | 14853 ft | 398 kts | 147° |
| 2026-04-19 23:57 | 51.72658 | 21.35227 | 15509 ft | 408 kts | 148° |
| 2026-04-19 23:57 | 51.70277 | 21.37784 | 16289 ft | 414 kts | 148° |
| 2026-04-19 23:57 | 51.67865 | 21.40371 | 17145 ft | 418 kts | 148° |
| 2026-04-19 23:57 | 51.65422 | 21.42986 | 17977 ft | 423 kts | 148° |
| 2026-04-19 23:58 | 51.62915 | 21.45525 | 18692 ft | 428 kts | 150° |
| 2026-04-19 23:58 | 51.60325 | 21.47969 | 19399 ft | 433 kts | 152° |
| 2026-04-19 23:58 | 51.57707 | 21.50404 | 20125 ft | 437 kts | 151° |
| 2026-04-19 23:58 | 51.55110 | 21.52841 | 20812 ft | 441 kts | 151° |
| 2026-04-19 23:59 | 51.52457 | 21.55361 | 21513 ft | 445 kts | 151° |
| 2026-04-19 23:59 | 51.49785 | 21.57909 | 22181 ft | 450 kts | 150° |
| 2026-04-19 23:59 | 51.47082 | 21.60495 | 22847 ft | 454 kts | 150° |
| 2026-04-19 23:59 | 51.44354 | 21.63109 | 23489 ft | 459 kts | 151° |
| 2026-04-20 00:00 | 51.41599 | 21.65744 | 24021 ft | 463 kts | 151° |
| 2026-04-20 00:00 | 51.38820 | 21.68396 | 24570 ft | 467 kts | 151° |
| 2026-04-20 00:00 | 51.36020 | 21.71060 | 25125 ft | 470 kts | 152° |
| 2026-04-20 00:00 | 51.33201 | 21.73730 | 25663 ft | 473 kts | 152° |
| 2026-04-20 00:01 | 51.30362 | 21.76415 | 26181 ft | 476 kts | 152° |
| 2026-04-20 00:01 | 51.27501 | 21.79119 | 26667 ft | 479 kts | 152° |
| 2026-04-20 00:01 | 51.21717 | 21.84579 | 27657 ft | 486 kts | 153° |
| 2026-04-20 00:02 | 51.18797 | 21.87335 | 28118 ft | 489 kts | 152° |
| 2026-04-20 00:02 | 51.15864 | 21.90146 | 28490 ft | 494 kts | 153° |
| 2026-04-20 00:02 | 51.12903 | 21.92983 | 28810 ft | 499 kts | 154° |
| 2026-04-20 00:02 | 51.09905 | 21.95794 | 29191 ft | 501 kts | 154° |
| 2026-04-20 00:03 | 51.06882 | 21.98599 | 29599 ft | 503 kts | 154° |
| 2026-04-20 00:03 | 51.03850 | 22.01406 | 29966 ft | 506 kts | 155° |
| 2026-04-20 00:03 | 51.00803 | 22.04228 | 30304 ft | 507 kts | 154° |
| 2026-04-20 00:03 | 50.98786 | 22.06100 | 30547 ft | 508 kts | 154° |
| 2026-04-20 00:04 | 50.95737 | 22.08930 | 30945 ft | 507 kts | 154° |
| 2026-04-20 00:04 | 50.92690 | 22.11752 | 31341 ft | 507 kts | 154° |
| 2026-04-20 00:04 | 50.89567 | 22.14232 | 31544 ft | 499 kts | 166° |
| 2026-04-20 00:04 | 50.86213 | 22.15293 | 31722 ft | 490 kts | 182° |
| 2026-04-20 00:05 | 50.82831 | 22.15022 | 31822 ft | 484 kts | 196° |
| 2026-04-20 00:05 | 50.79632 | 22.13588 | 32119 ft | 473 kts | 205° |
| 2026-04-20 00:05 | 50.76518 | 22.11863 | 32440 ft | 475 kts | 205° |
| 2026-04-20 00:05 | 50.73390 | 22.10171 | 32789 ft | 475 kts | 204° |
| 2026-04-20 00:06 | 50.70243 | 22.08500 | 32893 ft | 480 kts | 204° |
| 2026-04-20 00:06 | 50.63894 | 22.05201 | 32896 ft | 477 kts | 203° |
| 2026-04-20 00:07 | 50.57622 | 22.01993 | 32929 ft | 472 kts | 203° |
| 2026-04-20 00:07 | 50.51360 | 21.98793 | 32931 ft | 473 kts | 203° |
| 2026-04-20 00:08 | 50.45090 | 21.95594 | 32930 ft | 474 kts | 203° |
| 2026-04-20 00:08 | 50.38854 | 21.92421 | 32926 ft | 473 kts | 203° |
| 2026-04-20 00:09 | 50.32602 | 21.89251 | 32926 ft | 472 kts | 203° |
| 2026-04-20 00:09 | 50.26361 | 21.86094 | 32934 ft | 470 kts | 203° |
| 2026-04-20 00:10 | 50.20132 | 21.82952 | 32909 ft | 470 kts | 203° |
| 2026-04-20 00:10 | 50.13923 | 21.79827 | 32934 ft | 468 kts | 203° |
| 2026-04-20 00:11 | 50.07728 | 21.76718 | 32938 ft | 467 kts | 203° |
| 2026-04-20 00:11 | 50.01577 | 21.73639 | 32932 ft | 467 kts | 203° |
| 2026-04-20 00:12 | 49.95394 | 21.70554 | 32921 ft | 466 kts | 203° |
| 2026-04-20 00:12 | 49.89218 | 21.67480 | 32921 ft | 466 kts | 203° |
| 2026-04-20 00:13 | 49.83048 | 21.64416 | 32919 ft | 466 kts | 203° |
| 2026-04-20 00:13 | 49.76859 | 21.61351 | 32916 ft | 466 kts | 203° |
| 2026-04-20 00:14 | 49.70725 | 21.58323 | 32913 ft | 466 kts | 203° |
| 2026-04-20 00:14 | 49.64551 | 21.55281 | 32910 ft | 466 kts | 203° |
| 2026-04-20 00:15 | 49.58377 | 21.52249 | 32908 ft | 466 kts | 203° |
| 2026-04-20 00:15 | 49.52202 | 21.49222 | 32896 ft | 465 kts | 203° |
| 2026-04-20 00:16 | 49.46044 | 21.46203 | 32902 ft | 463 kts | 203° |
| 2026-04-20 00:16 | 49.39801 | 21.43620 | 32899 ft | 469 kts | 196° |
| 2026-04-20 00:16 | 49.36533 | 21.42983 | 33076 ft | 475 kts | 192° |
| 2026-04-20 00:17 | 49.33256 | 21.42489 | 33496 ft | 473 kts | 192° |
| 2026-04-20 00:17 | 49.29984 | 21.41977 | 33966 ft | 469 kts | 193° |
| 2026-04-20 00:17 | 49.26750 | 21.41453 | 34295 ft | 468 kts | 193° |
| 2026-04-20 00:17 | 49.23547 | 21.40920 | 34494 ft | 470 kts | 193° |
| 2026-04-20 00:18 | 49.20287 | 21.40368 | 34683 ft | 472 kts | 193° |
| 2026-04-20 00:18 | 49.17022 | 21.39817 | 34925 ft | 473 kts | 192° |
| 2026-04-20 00:18 | 49.13748 | 21.39266 | 35153 ft | 474 kts | 192° |
| 2026-04-20 00:18 | 49.10459 | 21.38714 | 35349 ft | 475 kts | 192° |
| 2026-04-20 00:19 | 49.07166 | 21.38162 | 35557 ft | 477 kts | 192° |
| 2026-04-20 00:19 | 49.03862 | 21.37611 | 35778 ft | 477 kts | 191° |
| 2026-04-20 00:19 | 49.00549 | 21.37058 | 35842 ft | 480 kts | 191° |
| 2026-04-20 00:20 | 48.93895 | 21.35953 | 35889 ft | 480 kts | 191° |
| 2026-04-20 00:20 | 48.87271 | 21.34857 | 35902 ft | 477 kts | 191° |
| 2026-04-20 00:21 | 48.80733 | 21.33777 | 35900 ft | 474 kts | 191° |
| 2026-04-20 00:21 | 48.74174 | 21.32693 | 35909 ft | 473 kts | 191° |
| 2026-04-20 00:22 | 48.67625 | 21.31613 | 35913 ft | 473 kts | 191° |
| 2026-04-20 00:22 | 48.61069 | 21.30535 | 35913 ft | 474 kts | 191° |
| 2026-04-20 00:23 | 48.54469 | 21.29864 | 35911 ft | 482 kts | 180° |
| 2026-04-20 00:23 | 48.51139 | 21.30775 | 35907 ft | 492 kts | 168° |
| 2026-04-20 00:23 | 48.47932 | 21.32634 | 35783 ft | 498 kts | 156° |
| 2026-04-20 00:23 | 48.44919 | 21.35220 | 35422 ft | 501 kts | 154° |
| 2026-04-20 00:24 | 48.41921 | 21.37935 | 35022 ft | 504 kts | 153° |
| 2026-04-20 00:24 | 48.38912 | 21.40677 | 34890 ft | 506 kts | 153° |
| 2026-04-20 00:24 | 48.35888 | 21.43406 | 34899 ft | 508 kts | 154° |
| 2026-04-20 00:25 | 48.29833 | 21.48767 | 34888 ft | 507 kts | 154° |
| 2026-04-20 00:25 | 48.23742 | 21.54068 | 34890 ft | 505 kts | 154° |
| 2026-04-20 00:26 | 48.17668 | 21.59323 | 34904 ft | 504 kts | 154° |
| 2026-04-20 00:26 | 48.11594 | 21.64568 | 34897 ft | 503 kts | 154° |
| 2026-04-20 00:27 | 48.05519 | 21.69805 | 34909 ft | 504 kts | 154° |
| 2026-04-20 00:27 | 47.99437 | 21.75035 | 34914 ft | 505 kts | 154° |
| 2026-04-20 00:28 | 47.93323 | 21.80276 | 34917 ft | 508 kts | 154° |
| 2026-04-20 00:28 | 47.87177 | 21.85532 | 34916 ft | 510 kts | 154° |
| 2026-04-20 00:29 | 47.80995 | 21.90804 | 34904 ft | 512 kts | 154° |
| 2026-04-20 00:29 | 47.74816 | 21.96061 | 34929 ft | 512 kts | 154° |
| 2026-04-20 00:30 | 47.68623 | 22.01314 | 34916 ft | 512 kts | 154° |
| 2026-04-20 00:30 | 47.62472 | 22.06518 | 34938 ft | 512 kts | 154° |
| 2026-04-20 00:31 | 47.56279 | 22.11747 | 34904 ft | 512 kts | 154° |
| 2026-04-20 00:31 | 47.50123 | 22.17044 | 34929 ft | 512 kts | 153° |
| 2026-04-20 00:32 | 47.43982 | 22.22370 | 34922 ft | 511 kts | 153° |
| 2026-04-20 00:32 | 47.37842 | 22.27675 | 34935 ft | 511 kts | 153° |
| 2026-04-20 00:33 | 47.31681 | 22.32968 | 34934 ft | 511 kts | 153° |
| 2026-04-20 00:33 | 47.25525 | 22.38237 | 34933 ft | 511 kts | 153° |
| 2026-04-20 00:34 | 47.19374 | 22.43488 | 34938 ft | 511 kts | 153° |
| 2026-04-20 00:34 | 47.13264 | 22.48690 | 34954 ft | 511 kts | 153° |
| 2026-04-20 00:35 | 47.07111 | 22.53915 | 34957 ft | 511 kts | 153° |
| 2026-04-20 00:35 | 47.00959 | 22.59126 | 34961 ft | 510 kts | 153° |
| 2026-04-20 00:36 | 46.94810 | 22.64320 | 34979 ft | 509 kts | 153° |
| 2026-04-20 00:36 | 46.88681 | 22.69484 | 34973 ft | 508 kts | 153° |
| 2026-04-20 00:37 | 46.82557 | 22.74629 | 34998 ft | 507 kts | 153° |
| 2026-04-20 00:37 | 46.76433 | 22.79760 | 34999 ft | 507 kts | 153° |
| 2026-04-20 00:38 | 46.70333 | 22.84858 | 35006 ft | 505 kts | 153° |
| 2026-04-20 00:38 | 46.64279 | 22.89905 | 35003 ft | 504 kts | 153° |
| 2026-04-20 00:39 | 46.58199 | 22.94959 | 35007 ft | 503 kts | 153° |
| 2026-04-20 00:39 | 46.52125 | 22.99996 | 35007 ft | 502 kts | 153° |
| 2026-04-20 00:40 | 46.46052 | 23.05018 | 35014 ft | 502 kts | 153° |
| 2026-04-20 00:40 | 46.39981 | 23.10026 | 35013 ft | 502 kts | 153° |
| 2026-04-20 00:41 | 46.33906 | 23.15024 | 35018 ft | 502 kts | 153° |
| 2026-04-20 00:41 | 46.27834 | 23.20008 | 35007 ft | 502 kts | 153° |
| 2026-04-20 00:42 | 46.22786 | 23.24141 | 35004 ft | 501 kts | 153° |
| 2026-04-20 00:42 | 46.15693 | 23.29933 | 35004 ft | 500 kts | 153° |
| 2026-04-20 00:43 | 46.09635 | 23.34867 | 35001 ft | 500 kts | 153° |
| 2026-04-20 00:43 | 46.03576 | 23.39789 | 34994 ft | 500 kts | 153° |
| 2026-04-20 00:44 | 45.97517 | 23.44698 | 34990 ft | 499 kts | 153° |
| 2026-04-20 00:44 | 45.91470 | 23.49585 | 35008 ft | 498 kts | 153° |
| 2026-04-20 00:45 | 45.85423 | 23.54460 | 35005 ft | 498 kts | 153° |
| 2026-04-20 00:45 | 45.79409 | 23.59296 | 35009 ft | 498 kts | 153° |
| 2026-04-20 00:46 | 45.73359 | 23.64149 | 35009 ft | 498 kts | 153° |
| 2026-04-20 00:46 | 45.67298 | 23.68998 | 35010 ft | 499 kts | 153° |
| 2026-04-20 00:47 | 45.61224 | 23.73846 | 35016 ft | 500 kts | 153° |
| 2026-04-20 00:47 | 45.55134 | 23.78693 | 35016 ft | 501 kts | 153° |
| 2026-04-20 00:48 | 45.49037 | 23.83536 | 35018 ft | 502 kts | 153° |
| 2026-04-20 00:48 | 45.42940 | 23.88367 | 35010 ft | 501 kts | 153° |
| 2026-04-20 00:49 | 45.36841 | 23.93186 | 35017 ft | 501 kts | 153° |
| 2026-04-20 00:49 | 45.31768 | 23.97185 | 35015 ft | 502 kts | 153° |
| 2026-04-20 00:50 | 45.25655 | 24.01993 | 35005 ft | 502 kts | 153° |
| 2026-04-20 00:50 | 45.19530 | 24.06799 | 34999 ft | 502 kts | 153° |
| 2026-04-20 00:51 | 45.13411 | 24.11589 | 35002 ft | 502 kts | 153° |
| 2026-04-20 00:51 | 45.07294 | 24.16365 | 35004 ft | 502 kts | 153° |
| 2026-04-20 00:52 | 45.01171 | 24.21134 | 35008 ft | 502 kts | 153° |
| 2026-04-20 00:52 | 44.95043 | 24.25894 | 34998 ft | 502 kts | 153° |
| 2026-04-20 00:53 | 44.88958 | 24.30611 | 34995 ft | 502 kts | 153° |
| 2026-04-20 00:53 | 44.82826 | 24.35351 | 34996 ft | 503 kts | 153° |
| 2026-04-20 00:54 | 44.76688 | 24.40085 | 34997 ft | 503 kts | 153° |
| 2026-04-20 00:54 | 44.70540 | 24.44815 | 34994 ft | 503 kts | 153° |
| 2026-04-20 00:55 | 44.64393 | 24.49534 | 34987 ft | 503 kts | 154° |
| 2026-04-20 00:55 | 44.58251 | 24.54236 | 34987 ft | 502 kts | 154° |
| 2026-04-20 00:56 | 44.52105 | 24.58930 | 34982 ft | 502 kts | 154° |
| 2026-04-20 00:56 | 44.45967 | 24.63607 | 34984 ft | 502 kts | 154° |
| 2026-04-20 00:57 | 44.39868 | 24.68243 | 34988 ft | 501 kts | 154° |
| 2026-04-20 00:57 | 44.33745 | 24.72886 | 34976 ft | 500 kts | 154° |
| 2026-04-20 00:58 | 44.27624 | 24.77516 | 34970 ft | 500 kts | 154° |
| 2026-04-20 00:58 | 44.21505 | 24.82135 | 34969 ft | 500 kts | 154° |
| 2026-04-20 00:59 | 44.15388 | 24.86741 | 34982 ft | 499 kts | 154° |
| 2026-04-20 00:59 | 44.09283 | 24.91327 | 34967 ft | 499 kts | 155° |
| 2026-04-20 01:00 | 44.03170 | 24.95909 | 34977 ft | 498 kts | 155° |
| 2026-04-20 01:00 | 43.97105 | 25.00444 | 34975 ft | 498 kts | 155° |
| 2026-04-20 01:01 | 43.91024 | 25.05093 | 34972 ft | 499 kts | 154° |
| 2026-04-20 01:01 | 43.84956 | 25.09806 | 34969 ft | 499 kts | 154° |
| 2026-04-20 01:02 | 43.78887 | 25.14505 | 34983 ft | 500 kts | 154° |
| 2026-04-20 01:02 | 43.72808 | 25.19182 | 34982 ft | 500 kts | 154° |
| 2026-04-20 01:03 | 43.66721 | 25.23849 | 34957 ft | 500 kts | 154° |
| 2026-04-20 01:03 | 43.60631 | 25.28505 | 34979 ft | 500 kts | 154° |
| 2026-04-20 01:04 | 43.54541 | 25.33152 | 34977 ft | 500 kts | 154° |
| 2026-04-20 01:04 | 43.48447 | 25.37791 | 34987 ft | 500 kts | 154° |
| 2026-04-20 01:05 | 43.42386 | 25.42395 | 34985 ft | 500 kts | 153° |
| 2026-04-20 01:05 | 43.36291 | 25.47014 | 34992 ft | 500 kts | 153° |
| 2026-04-20 01:06 | 43.30188 | 25.51628 | 34988 ft | 500 kts | 153° |
| 2026-04-20 01:06 | 43.24074 | 25.56239 | 34991 ft | 501 kts | 153° |
| 2026-04-20 01:07 | 43.17965 | 25.60838 | 34988 ft | 500 kts | 153° |
| 2026-04-20 01:07 | 43.11857 | 25.65423 | 34995 ft | 500 kts | 153° |
| 2026-04-20 01:08 | 43.05787 | 25.69971 | 34999 ft | 501 kts | 154° |
| 2026-04-20 01:08 | 42.99674 | 25.74539 | 34995 ft | 500 kts | 154° |
| 2026-04-20 01:09 | 42.93550 | 25.79106 | 35005 ft | 501 kts | 153° |
| 2026-04-20 01:09 | 42.87438 | 25.83654 | 35032 ft | 500 kts | 153° |
| 2026-04-20 01:10 | 42.81322 | 25.88194 | 35036 ft | 500 kts | 154° |
| 2026-04-20 01:10 | 42.72147 | 25.94985 | 35029 ft | 500 kts | 153° |
| 2026-04-20 01:11 | 42.66036 | 25.99496 | 35045 ft | 499 kts | 153° |
| 2026-04-20 01:11 | 42.59959 | 26.03972 | 35054 ft | 499 kts | 153° |
| 2026-04-20 01:12 | 42.53848 | 26.08462 | 35053 ft | 499 kts | 153° |
| 2026-04-20 01:12 | 42.47739 | 26.12940 | 35046 ft | 499 kts | 153° |
| 2026-04-20 01:13 | 42.41629 | 26.17410 | 35052 ft | 499 kts | 153° |
| 2026-04-20 01:13 | 42.35516 | 26.21872 | 35056 ft | 499 kts | 153° |
| 2026-04-20 01:14 | 42.29401 | 26.26326 | 35052 ft | 499 kts | 153° |
| 2026-04-20 01:14 | 42.23285 | 26.30770 | 35046 ft | 499 kts | 153° |
| 2026-04-20 01:15 | 42.17166 | 26.35207 | 35056 ft | 499 kts | 153° |
| 2026-04-20 01:15 | 42.11080 | 26.39611 | 35064 ft | 499 kts | 153° |
| 2026-04-20 01:16 | 42.04946 | 26.44039 | 35059 ft | 500 kts | 153° |
| 2026-04-20 01:16 | 41.98814 | 26.48457 | 35056 ft | 500 kts | 153° |
| 2026-04-20 01:17 | 41.92673 | 26.52873 | 35059 ft | 500 kts | 153° |
| 2026-04-20 01:17 | 41.86561 | 26.57361 | 35061 ft | 501 kts | 149° |
| 2026-04-20 01:18 | 41.80870 | 26.62676 | 35070 ft | 502 kts | 145° |
| 2026-04-20 01:18 | 41.75193 | 26.68135 | 35060 ft | 503 kts | 145° |
| 2026-04-20 01:19 | 41.69481 | 26.73557 | 35065 ft | 503 kts | 146° |
| 2026-04-20 01:19 | 41.63753 | 26.78946 | 35073 ft | 504 kts | 146° |
| 2026-04-20 01:20 | 41.58012 | 26.84335 | 35064 ft | 504 kts | 146° |
| 2026-04-20 01:20 | 41.52262 | 26.89726 | 35066 ft | 505 kts | 146° |
| 2026-04-20 01:21 | 41.46507 | 26.95111 | 35069 ft | 505 kts | 146° |
| 2026-04-20 01:21 | 41.40747 | 27.00478 | 35070 ft | 506 kts | 146° |
| 2026-04-20 01:22 | 41.35011 | 27.05808 | 35068 ft | 506 kts | 146° |
| 2026-04-20 01:22 | 41.29238 | 27.11165 | 35072 ft | 506 kts | 146° |
| 2026-04-20 01:23 | 41.23455 | 27.16521 | 35079 ft | 506 kts | 146° |
| 2026-04-20 01:23 | 41.17665 | 27.21868 | 35066 ft | 507 kts | 146° |
| 2026-04-20 01:24 | 41.11867 | 27.27208 | 35071 ft | 507 kts | 146° |
| 2026-04-20 01:24 | 41.06059 | 27.32548 | 35065 ft | 508 kts | 146° |
| 2026-04-20 01:25 | 41.00282 | 27.37852 | 35060 ft | 508 kts | 146° |
| 2026-04-20 01:25 | 40.94463 | 27.43182 | 35067 ft | 509 kts | 146° |
| 2026-04-20 01:26 | 40.88662 | 27.48554 | 35080 ft | 509 kts | 145° |
| 2026-04-20 01:26 | 40.82875 | 27.53947 | 35064 ft | 509 kts | 145° |
| 2026-04-20 01:27 | 40.77079 | 27.59334 | 35058 ft | 509 kts | 145° |
| 2026-04-20 01:27 | 40.71281 | 27.64701 | 35078 ft | 509 kts | 145° |
| 2026-04-20 01:28 | 40.65470 | 27.70065 | 35061 ft | 510 kts | 145° |
| 2026-04-20 01:28 | 40.59650 | 27.75425 | 35060 ft | 510 kts | 145° |
| 2026-04-20 01:29 | 40.53873 | 27.80735 | 35063 ft | 510 kts | 145° |
| 2026-04-20 01:29 | 40.48056 | 27.86070 | 35062 ft | 510 kts | 146° |
| 2026-04-20 01:30 | 40.42229 | 27.91402 | 35081 ft | 510 kts | 146° |
| 2026-04-20 01:30 | 40.36408 | 27.96718 | 35079 ft | 510 kts | 146° |
| 2026-04-20 01:31 | 40.30577 | 28.02032 | 35063 ft | 510 kts | 146° |
| 2026-04-20 01:31 | 40.24741 | 28.07338 | 35074 ft | 510 kts | 146° |
| 2026-04-20 01:32 | 40.18899 | 28.12639 | 35074 ft | 511 kts | 146° |
| 2026-04-20 01:32 | 40.13040 | 28.17944 | 35087 ft | 512 kts | 146° |
| 2026-04-20 01:33 | 40.07182 | 28.23237 | 35090 ft | 513 kts | 146° |
| 2026-04-20 01:33 | 40.01337 | 28.28506 | 35088 ft | 513 kts | 146° |
| 2026-04-20 01:34 | 39.95446 | 28.33806 | 35095 ft | 514 kts | 146° |
| 2026-04-20 01:34 | 39.89558 | 28.39092 | 35097 ft | 514 kts | 146° |
| 2026-04-20 01:35 | 39.83663 | 28.44373 | 35080 ft | 514 kts | 146° |
| 2026-04-20 01:35 | 39.77765 | 28.49646 | 35085 ft | 514 kts | 146° |
| 2026-04-20 01:36 | 39.71904 | 28.54874 | 35074 ft | 514 kts | 146° |
| 2026-04-20 01:36 | 39.66959 | 28.59277 | 35099 ft | 514 kts | 146° |
| 2026-04-20 01:37 | 39.61053 | 28.64525 | 35094 ft | 514 kts | 146° |
| 2026-04-20 01:37 | 39.55185 | 28.69728 | 35084 ft | 514 kts | 146° |
| 2026-04-20 01:38 | 39.49274 | 28.74959 | 35080 ft | 515 kts | 146° |
| 2026-04-20 01:38 | 39.43350 | 28.80190 | 35099 ft | 515 kts | 146° |
| 2026-04-20 01:39 | 39.37428 | 28.85409 | 35093 ft | 516 kts | 146° |
| 2026-04-20 01:39 | 39.31492 | 28.90629 | 35087 ft | 516 kts | 146° |
| 2026-04-20 01:40 | 39.25554 | 28.95840 | 35081 ft | 516 kts | 146° |
| 2026-04-20 01:40 | 39.19613 | 29.01042 | 35085 ft | 516 kts | 146° |
| 2026-04-20 01:41 | 39.13709 | 29.06202 | 35082 ft | 516 kts | 146° |
| 2026-04-20 01:41 | 39.07758 | 29.11391 | 35066 ft | 517 kts | 146° |
| 2026-04-20 01:42 | 39.01802 | 29.16575 | 35074 ft | 517 kts | 146° |
| 2026-04-20 01:42 | 38.95836 | 29.21757 | 35056 ft | 517 kts | 146° |
| 2026-04-20 01:43 | 38.89870 | 29.26927 | 35072 ft | 517 kts | 146° |
| 2026-04-20 01:43 | 38.83902 | 29.32090 | 35074 ft | 517 kts | 146° |
| 2026-04-20 01:44 | 38.77927 | 29.37248 | 35064 ft | 517 kts | 146° |
| 2026-04-20 01:44 | 38.71993 | 29.42363 | 35057 ft | 517 kts | 145° |
| 2026-04-20 01:45 | 38.66457 | 29.48195 | 35064 ft | 515 kts | 134° |
| 2026-04-20 01:45 | 38.61820 | 29.55165 | 35065 ft | 513 kts | 124° |
| 2026-04-20 01:46 | 38.57665 | 29.62598 | 35051 ft | 514 kts | 123° |
| 2026-04-20 01:46 | 38.53491 | 29.70027 | 35049 ft | 514 kts | 124° |
| 2026-04-20 01:47 | 38.49279 | 29.77420 | 35044 ft | 515 kts | 124° |
| 2026-04-20 01:47 | 38.45076 | 29.84753 | 35048 ft | 514 kts | 124° |
| 2026-04-20 01:48 | 38.40850 | 29.92116 | 35045 ft | 514 kts | 124° |
| 2026-04-20 01:48 | 38.36623 | 29.99468 | 35032 ft | 514 kts | 124° |
| 2026-04-20 01:49 | 38.32392 | 30.06814 | 35028 ft | 513 kts | 124° |
| 2026-04-20 01:49 | 38.28158 | 30.14148 | 35037 ft | 514 kts | 124° |
| 2026-04-20 01:50 | 38.23930 | 30.21474 | 35023 ft | 513 kts | 124° |
| 2026-04-20 01:50 | 38.19695 | 30.28791 | 35024 ft | 513 kts | 124° |
| 2026-04-20 01:51 | 38.15456 | 30.36097 | 35021 ft | 513 kts | 124° |
| 2026-04-20 01:51 | 38.11211 | 30.43401 | 35017 ft | 514 kts | 124° |
| 2026-04-20 01:52 | 38.06968 | 30.50689 | 35016 ft | 514 kts | 124° |
| 2026-04-20 01:52 | 38.02714 | 30.57980 | 34985 ft | 514 kts | 124° |
| 2026-04-20 01:53 | 37.98482 | 30.65216 | 34980 ft | 513 kts | 124° |
| 2026-04-20 01:53 | 37.94231 | 30.72475 | 34987 ft | 513 kts | 124° |
| 2026-04-20 01:54 | 37.89977 | 30.79738 | 34977 ft | 514 kts | 124° |
| 2026-04-20 01:54 | 37.85713 | 30.87006 | 34974 ft | 514 kts | 124° |
| 2026-04-20 01:55 | 37.81437 | 30.94276 | 34968 ft | 515 kts | 124° |
| 2026-04-20 01:55 | 37.77152 | 31.01544 | 34973 ft | 516 kts | 125° |
| 2026-04-20 01:56 | 37.72855 | 31.08816 | 34967 ft | 516 kts | 125° |
| 2026-04-20 01:56 | 37.68555 | 31.16078 | 34968 ft | 516 kts | 125° |
| 2026-04-20 01:57 | 37.64258 | 31.23320 | 34974 ft | 515 kts | 125° |
| 2026-04-20 01:57 | 37.59959 | 31.30551 | 34970 ft | 515 kts | 125° |
| 2026-04-20 01:58 | 37.55665 | 31.37754 | 34966 ft | 514 kts | 125° |
| 2026-04-20 01:58 | 37.51371 | 31.44943 | 34961 ft | 513 kts | 126° |
| 2026-04-20 01:59 | 37.47072 | 31.52128 | 34967 ft | 513 kts | 126° |
| 2026-04-20 01:59 | 37.42769 | 31.59302 | 34978 ft | 514 kts | 126° |
| 2026-04-20 02:00 | 37.38455 | 31.66481 | 34978 ft | 514 kts | 126° |
| 2026-04-20 02:00 | 37.34133 | 31.73650 | 34992 ft | 516 kts | 126° |
| 2026-04-20 02:01 | 37.31955 | 31.77247 | 35197 ft | 517 kts | 127° |
| 2026-04-20 02:01 | 37.29776 | 31.80841 | 35537 ft | 516 kts | 127° |
| 2026-04-20 02:01 | 37.27606 | 31.84419 | 35874 ft | 515 kts | 127° |
| 2026-04-20 02:01 | 37.25436 | 31.87991 | 36197 ft | 514 kts | 128° |
| 2026-04-20 02:02 | 37.23270 | 31.91555 | 36468 ft | 514 kts | 128° |
| 2026-04-20 02:02 | 37.21098 | 31.95126 | 36727 ft | 514 kts | 128° |
| 2026-04-20 02:02 | 37.18923 | 31.98698 | 36894 ft | 516 kts | 128° |
| 2026-04-20 02:02 | 37.16740 | 32.02280 | 36941 ft | 518 kts | 128° |
| 2026-04-20 02:03 | 37.12370 | 32.09440 | 36977 ft | 516 kts | 128° |
| 2026-04-20 02:03 | 37.08045 | 32.16511 | 36974 ft | 513 kts | 129° |
| 2026-04-20 02:04 | 37.03700 | 32.23599 | 36985 ft | 513 kts | 129° |
| 2026-04-20 02:04 | 36.99351 | 32.30680 | 36984 ft | 513 kts | 129° |
| 2026-04-20 02:05 | 36.94992 | 32.37764 | 36973 ft | 514 kts | 129° |
| 2026-04-20 02:05 | 36.90614 | 32.44860 | 36984 ft | 515 kts | 129° |
| 2026-04-20 02:06 | 36.86228 | 32.51957 | 36976 ft | 517 kts | 129° |
| 2026-04-20 02:06 | 36.81827 | 32.59072 | 36976 ft | 518 kts | 129° |
| 2026-04-20 02:07 | 36.77424 | 32.66181 | 36977 ft | 518 kts | 130° |
| 2026-04-20 02:07 | 36.73037 | 32.73249 | 36966 ft | 518 kts | 130° |
| 2026-04-20 02:08 | 36.68624 | 32.80344 | 36961 ft | 517 kts | 130° |
| 2026-04-20 02:08 | 36.64208 | 32.87427 | 36960 ft | 518 kts | 130° |
| 2026-04-20 02:09 | 36.59790 | 32.94500 | 36932 ft | 517 kts | 130° |
| 2026-04-20 02:09 | 36.55369 | 33.01562 | 36937 ft | 517 kts | 130° |
| 2026-04-20 02:10 | 36.50949 | 33.08609 | 36921 ft | 517 kts | 130° |
| 2026-04-20 02:10 | 36.46520 | 33.15654 | 36917 ft | 517 kts | 130° |
| 2026-04-20 02:11 | 36.42094 | 33.22684 | 36901 ft | 516 kts | 131° |
| 2026-04-20 02:11 | 36.37667 | 33.29699 | 36891 ft | 516 kts | 131° |
| 2026-04-20 02:12 | 36.33229 | 33.36691 | 36897 ft | 516 kts | 131° |
| 2026-04-20 02:12 | 36.28778 | 33.43681 | 36862 ft | 516 kts | 131° |
| 2026-04-20 02:13 | 36.24323 | 33.50670 | 36860 ft | 517 kts | 131° |
| 2026-04-20 02:13 | 36.19855 | 33.57668 | 36858 ft | 517 kts | 131° |
| 2026-04-20 02:14 | 36.15419 | 33.64602 | 36872 ft | 517 kts | 131° |
| 2026-04-20 02:14 | 36.10944 | 33.71583 | 36857 ft | 518 kts | 131° |
| 2026-04-20 02:15 | 36.06467 | 33.78553 | 36861 ft | 518 kts | 131° |
| 2026-04-20 02:15 | 36.01979 | 33.85526 | 36844 ft | 518 kts | 131° |
| 2026-04-20 02:16 | 35.97491 | 33.92487 | 36853 ft | 518 kts | 131° |
| 2026-04-20 02:16 | 35.92830 | 33.99224 | 36845 ft | 513 kts | 140° |
| 2026-04-20 02:17 | 35.87363 | 34.04771 | 36830 ft | 506 kts | 150° |
| 2026-04-20 02:17 | 35.81363 | 34.09239 | 36853 ft | 503 kts | 154° |
| 2026-04-20 02:18 | 35.75356 | 34.13561 | 36854 ft | 504 kts | 154° |
| 2026-04-20 02:18 | 35.69312 | 34.17948 | 36854 ft | 505 kts | 154° |
| 2026-04-20 02:19 | 35.63264 | 34.22368 | 36838 ft | 506 kts | 154° |
| 2026-04-20 02:19 | 35.57221 | 34.26788 | 36845 ft | 505 kts | 154° |
| 2026-04-20 02:20 | 35.51184 | 34.31192 | 36853 ft | 504 kts | 154° |
| 2026-04-20 02:20 | 35.46167 | 34.34844 | 36854 ft | 504 kts | 154° |
| 2026-04-20 02:21 | 35.37116 | 34.41417 | 36857 ft | 503 kts | 155° |
| 2026-04-20 02:22 | 35.31078 | 34.45793 | 36856 ft | 503 kts | 155° |
| 2026-04-20 02:22 | 35.25056 | 34.50151 | 36850 ft | 502 kts | 155° |
| 2026-04-20 02:23 | 35.19078 | 34.54467 | 36870 ft | 502 kts | 155° |
| 2026-04-20 02:23 | 35.13063 | 34.58803 | 36861 ft | 501 kts | 155° |
| 2026-04-20 02:24 | 35.07054 | 34.63128 | 36828 ft | 501 kts | 155° |
| 2026-04-20 02:24 | 35.01045 | 34.67445 | 36861 ft | 501 kts | 155° |
| 2026-04-20 02:25 | 34.95029 | 34.71759 | 36868 ft | 501 kts | 155° |
| 2026-04-20 02:25 | 34.89014 | 34.76068 | 36857 ft | 501 kts | 155° |
| 2026-04-20 02:26 | 34.82996 | 34.80369 | 36871 ft | 501 kts | 155° |
| 2026-04-20 02:26 | 34.77004 | 34.84643 | 36859 ft | 501 kts | 156° |
| 2026-04-20 02:27 | 34.70981 | 34.88934 | 36874 ft | 502 kts | 156° |
| 2026-04-20 02:27 | 34.64953 | 34.93221 | 36875 ft | 502 kts | 156° |
| 2026-04-20 02:28 | 34.58916 | 34.97509 | 36877 ft | 503 kts | 156° |
| 2026-04-20 02:28 | 34.52876 | 35.01805 | 36864 ft | 502 kts | 154° |
| 2026-04-20 02:28 | 34.50099 | 35.04438 | 36871 ft | 513 kts | 140° |
| 2026-04-20 02:29 | 34.47839 | 35.07764 | 36880 ft | 523 kts | 128° |
| 2026-04-20 02:29 | 34.46135 | 35.11695 | 36874 ft | 532 kts | 114° |
| 2026-04-20 02:29 | 34.44961 | 35.15947 | 36889 ft | 533 kts | 111° |
| 2026-04-20 02:30 | 34.42748 | 35.24530 | 36878 ft | 535 kts | 111° |
| 2026-04-20 02:30 | 34.40451 | 35.33093 | 36881 ft | 535 kts | 112° |
| 2026-04-20 02:31 | 34.38073 | 35.41624 | 36892 ft | 535 kts | 112° |
| 2026-04-20 02:31 | 34.35678 | 35.50147 | 36885 ft | 535 kts | 112° |
| 2026-04-20 02:32 | 34.33290 | 35.58659 | 36901 ft | 534 kts | 112° |
| 2026-04-20 02:32 | 34.30902 | 35.67155 | 36901 ft | 533 kts | 112° |
| 2026-04-20 02:33 | 34.28144 | 35.75422 | 36883 ft | 528 kts | 119° |
| 2026-04-20 02:33 | 34.25028 | 35.83453 | 36906 ft | 528 kts | 120° |
| 2026-04-20 02:34 | 34.21905 | 35.91500 | 36903 ft | 529 kts | 120° |
| 2026-04-20 02:34 | 34.18807 | 35.99573 | 36910 ft | 530 kts | 120° |
| 2026-04-20 02:35 | 34.15709 | 36.07665 | 36909 ft | 530 kts | 120° |
| 2026-04-20 02:35 | 34.12625 | 36.15698 | 36906 ft | 530 kts | 120° |
| 2026-04-20 02:36 | 34.09513 | 36.23773 | 36925 ft | 530 kts | 120° |
| 2026-04-20 02:36 | 34.06397 | 36.31839 | 36917 ft | 531 kts | 120° |
| 2026-04-20 02:37 | 34.03271 | 36.39915 | 36912 ft | 531 kts | 120° |
| 2026-04-20 02:37 | 34.00303 | 36.48103 | 36919 ft | 532 kts | 117° |
| 2026-04-20 02:38 | 33.97420 | 36.56325 | 36902 ft | 532 kts | 118° |
| 2026-04-20 02:38 | 33.94425 | 36.64413 | 36911 ft | 531 kts | 120° |
| 2026-04-20 02:39 | 33.91350 | 36.72505 | 36906 ft | 531 kts | 120° |
| 2026-04-20 02:39 | 33.88283 | 36.80600 | 36903 ft | 531 kts | 120° |
| 2026-04-20 02:40 | 33.85228 | 36.88690 | 36918 ft | 531 kts | 120° |
| 2026-04-20 02:40 | 33.82168 | 36.96787 | 36906 ft | 532 kts | 120° |
| 2026-04-20 02:41 | 33.79098 | 37.04888 | 36891 ft | 533 kts | 120° |
| 2026-04-20 02:41 | 33.76013 | 37.13004 | 36906 ft | 534 kts | 120° |
| 2026-04-20 02:42 | 33.72917 | 37.21131 | 36916 ft | 536 kts | 120° |
| 2026-04-20 02:42 | 33.69805 | 37.29279 | 36902 ft | 537 kts | 120° |
| 2026-04-20 02:43 | 33.66685 | 37.37430 | 36912 ft | 538 kts | 120° |
| 2026-04-20 02:43 | 33.63554 | 37.45592 | 36912 ft | 539 kts | 120° |
| 2026-04-20 02:44 | 33.60412 | 37.53764 | 36901 ft | 538 kts | 120° |
| 2026-04-20 02:44 | 33.56996 | 37.61647 | 36899 ft | 523 kts | 134° |
| 2026-04-20 02:44 | 33.54609 | 37.64859 | 36926 ft | 510 kts | 145° |
| 2026-04-20 02:45 | 33.51915 | 37.67473 | 36907 ft | 500 kts | 154° |
| 2026-04-20 02:45 | 33.48920 | 37.69478 | 36912 ft | 487 kts | 164° |
| 2026-04-20 02:45 | 33.45820 | 37.71107 | 36910 ft | 487 kts | 164° |
| 2026-04-20 02:46 | 33.39651 | 37.74549 | 36913 ft | 490 kts | 163° |
| 2026-04-20 02:46 | 33.33496 | 37.78076 | 36905 ft | 491 kts | 163° |
| 2026-04-20 02:47 | 33.27332 | 37.81603 | 36921 ft | 491 kts | 163° |
| 2026-04-20 02:47 | 33.21158 | 37.85119 | 36921 ft | 492 kts | 163° |
| 2026-04-20 02:48 | 33.14984 | 37.88625 | 36920 ft | 492 kts | 163° |
| 2026-04-20 02:48 | 33.08809 | 37.92128 | 36912 ft | 491 kts | 163° |
| 2026-04-20 02:49 | 33.02627 | 37.95630 | 36871 ft | 491 kts | 163° |
| 2026-04-20 02:49 | 32.96479 | 37.99108 | 36918 ft | 489 kts | 163° |
| 2026-04-20 02:50 | 32.90361 | 38.02664 | 36926 ft | 489 kts | 162° |
| 2026-04-20 02:50 | 32.84282 | 38.06305 | 36895 ft | 489 kts | 162° |
| 2026-04-20 02:51 | 32.78249 | 38.09890 | 36925 ft | 488 kts | 163° |
| 2026-04-20 02:51 | 32.72160 | 38.13497 | 36930 ft | 488 kts | 163° |
| 2026-04-20 02:52 | 32.66071 | 38.17101 | 36936 ft | 489 kts | 163° |
| 2026-04-20 02:52 | 32.59968 | 38.20710 | 36934 ft | 489 kts | 163° |
| 2026-04-20 02:53 | 32.53874 | 38.24309 | 36924 ft | 490 kts | 163° |
| 2026-04-20 02:53 | 32.47764 | 38.27911 | 36931 ft | 490 kts | 163° |
| 2026-04-20 02:54 | 32.41646 | 38.31513 | 36938 ft | 491 kts | 163° |
| 2026-04-20 02:54 | 32.35564 | 38.35088 | 36938 ft | 491 kts | 163° |
| 2026-04-20 02:55 | 32.29435 | 38.38685 | 36922 ft | 492 kts | 164° |
| 2026-04-20 02:55 | 32.23309 | 38.42277 | 36939 ft | 491 kts | 164° |
| 2026-04-20 02:56 | 32.17199 | 38.45853 | 36934 ft | 490 kts | 164° |
| 2026-04-20 02:56 | 32.11088 | 38.49424 | 36934 ft | 489 kts | 164° |
| 2026-04-20 02:57 | 32.04981 | 38.52987 | 36942 ft | 488 kts | 164° |
| 2026-04-20 02:57 | 31.98927 | 38.56515 | 36935 ft | 488 kts | 164° |
| 2026-04-20 02:58 | 31.92845 | 38.60052 | 36932 ft | 487 kts | 164° |
| 2026-04-20 02:58 | 31.86875 | 38.63983 | 36947 ft | 495 kts | 159° |
| 2026-04-20 02:59 | 31.81033 | 38.68300 | 36944 ft | 495 kts | 159° |
| 2026-04-20 02:59 | 31.75232 | 38.72593 | 36939 ft | 496 kts | 159° |
| 2026-04-20 03:00 | 31.69373 | 38.76888 | 36938 ft | 496 kts | 159° |
| 2026-04-20 03:00 | 31.63508 | 38.81164 | 36943 ft | 497 kts | 159° |
| 2026-04-20 03:01 | 31.57624 | 38.85438 | 36947 ft | 497 kts | 159° |
| 2026-04-20 03:01 | 31.51742 | 38.89709 | 36912 ft | 497 kts | 159° |
| 2026-04-20 03:02 | 31.45869 | 38.93970 | 36897 ft | 496 kts | 159° |
| 2026-04-20 03:02 | 31.40038 | 38.98194 | 36942 ft | 495 kts | 159° |
| 2026-04-20 03:03 | 31.34178 | 39.02432 | 36949 ft | 495 kts | 159° |
| 2026-04-20 03:03 | 31.28312 | 39.06667 | 36952 ft | 495 kts | 159° |
| 2026-04-20 03:04 | 31.22451 | 39.10892 | 36955 ft | 495 kts | 159° |
| 2026-04-20 03:04 | 31.16589 | 39.15113 | 36916 ft | 494 kts | 159° |
| 2026-04-20 03:05 | 31.10740 | 39.19318 | 36955 ft | 494 kts | 159° |
| 2026-04-20 03:05 | 31.04888 | 39.23517 | 36965 ft | 494 kts | 159° |
| 2026-04-20 03:06 | 31.00022 | 39.27005 | 36956 ft | 494 kts | 160° |
| 2026-04-20 03:06 | 30.93208 | 39.31882 | 36969 ft | 494 kts | 160° |
| 2026-04-20 03:07 | 30.87340 | 39.36076 | 36912 ft | 494 kts | 160° |
| 2026-04-20 03:07 | 30.82471 | 39.39554 | 36960 ft | 493 kts | 160° |
| 2026-04-20 03:08 | 30.76606 | 39.43733 | 36967 ft | 494 kts | 160° |
| 2026-04-20 03:08 | 30.70743 | 39.47904 | 36971 ft | 495 kts | 160° |
| 2026-04-20 03:09 | 30.64867 | 39.52080 | 36968 ft | 495 kts | 160° |
| 2026-04-20 03:09 | 30.58984 | 39.56256 | 36971 ft | 495 kts | 160° |
| 2026-04-20 03:10 | 30.53102 | 39.60426 | 36972 ft | 495 kts | 160° |
| 2026-04-20 03:10 | 30.47256 | 39.64562 | 36973 ft | 496 kts | 160° |
| 2026-04-20 03:11 | 30.41358 | 39.68729 | 36969 ft | 497 kts | 160° |
| 2026-04-20 03:11 | 30.35455 | 39.72894 | 36973 ft | 497 kts | 160° |
| 2026-04-20 03:12 | 30.29539 | 39.77063 | 36985 ft | 498 kts | 160° |
| 2026-04-20 03:12 | 30.23623 | 39.81227 | 36944 ft | 498 kts | 161° |
| 2026-04-20 03:13 | 30.17699 | 39.85390 | 36969 ft | 498 kts | 161° |
| 2026-04-20 03:13 | 30.11813 | 39.89518 | 36974 ft | 498 kts | 161° |
| 2026-04-20 03:14 | 30.05878 | 39.93677 | 36972 ft | 499 kts | 161° |
| 2026-04-20 03:14 | 29.99946 | 39.97827 | 36987 ft | 498 kts | 161° |
| 2026-04-20 03:15 | 29.94012 | 40.01974 | 36982 ft | 498 kts | 161° |
| 2026-04-20 03:15 | 29.88082 | 40.06113 | 36992 ft | 497 kts | 161° |
| 2026-04-20 03:16 | 29.82159 | 40.10238 | 36992 ft | 498 kts | 161° |
| 2026-04-20 03:16 | 29.76229 | 40.14363 | 36995 ft | 498 kts | 161° |
| 2026-04-20 03:17 | 29.70301 | 40.18482 | 36993 ft | 498 kts | 161° |
| 2026-04-20 03:17 | 29.64372 | 40.22596 | 36986 ft | 498 kts | 161° |
| 2026-04-20 03:18 | 29.58478 | 40.26679 | 36941 ft | 497 kts | 161° |
| 2026-04-20 03:18 | 29.52556 | 40.30778 | 36966 ft | 497 kts | 161° |
| 2026-04-20 03:19 | 29.46629 | 40.34873 | 36966 ft | 497 kts | 161° |
| 2026-04-20 03:19 | 29.40702 | 40.38961 | 36970 ft | 497 kts | 161° |
| 2026-04-20 03:20 | 29.34783 | 40.43040 | 36962 ft | 497 kts | 161° |
| 2026-04-20 03:20 | 29.28855 | 40.47119 | 36981 ft | 497 kts | 161° |
| 2026-04-20 03:21 | 29.22923 | 40.51195 | 36957 ft | 497 kts | 161° |
| 2026-04-20 03:21 | 29.16994 | 40.55266 | 36967 ft | 497 kts | 161° |
| 2026-04-20 03:22 | 29.11046 | 40.59323 | 36957 ft | 497 kts | 162° |
| 2026-04-20 03:22 | 29.05061 | 40.63266 | 36960 ft | 496 kts | 163° |
| 2026-04-20 03:23 | 28.99061 | 40.67178 | 36958 ft | 497 kts | 163° |
| 2026-04-20 03:23 | 28.93097 | 40.71078 | 36958 ft | 497 kts | 163° |
| 2026-04-20 03:24 | 28.87085 | 40.75018 | 36952 ft | 498 kts | 163° |
| 2026-04-20 03:24 | 28.81073 | 40.78959 | 36953 ft | 498 kts | 163° |
| 2026-04-20 03:25 | 28.75060 | 40.82894 | 36955 ft | 498 kts | 163° |
| 2026-04-20 03:25 | 28.69049 | 40.86820 | 36958 ft | 498 kts | 163° |
| 2026-04-20 03:26 | 28.63038 | 40.90742 | 36958 ft | 498 kts | 163° |
| 2026-04-20 03:26 | 28.57036 | 40.94652 | 36948 ft | 497 kts | 163° |
| 2026-04-20 03:27 | 28.51026 | 40.98561 | 36917 ft | 497 kts | 163° |
| 2026-04-20 03:27 | 28.45017 | 41.02463 | 36946 ft | 498 kts | 163° |
| 2026-04-20 03:28 | 28.38980 | 41.06379 | 36960 ft | 500 kts | 163° |
| 2026-04-20 03:28 | 28.29891 | 41.12266 | 36960 ft | 502 kts | 163° |
| 2026-04-20 03:29 | 28.23811 | 41.16199 | 36949 ft | 503 kts | 163° |
| 2026-04-20 03:29 | 28.17728 | 41.20130 | 36961 ft | 503 kts | 163° |
| 2026-04-20 03:30 | 28.11673 | 41.24034 | 36967 ft | 504 kts | 163° |
| 2026-04-20 03:30 | 28.05569 | 41.27966 | 36972 ft | 505 kts | 163° |
| 2026-04-20 03:31 | 27.99457 | 41.31899 | 36966 ft | 505 kts | 163° |
| 2026-04-20 03:31 | 27.93347 | 41.35825 | 36921 ft | 505 kts | 163° |
| 2026-04-20 03:32 | 27.87232 | 41.39749 | 36970 ft | 505 kts | 163° |
| 2026-04-20 03:32 | 27.81106 | 41.43672 | 36981 ft | 507 kts | 163° |
| 2026-04-20 03:33 | 27.74969 | 41.47599 | 36968 ft | 508 kts | 163° |
| 2026-04-20 03:33 | 27.68811 | 41.51536 | 36980 ft | 508 kts | 163° |
| 2026-04-20 03:34 | 27.62648 | 41.55470 | 36941 ft | 509 kts | 163° |
| 2026-04-20 03:34 | 27.56473 | 41.59406 | 36966 ft | 511 kts | 162° |
| 2026-04-20 03:35 | 27.50266 | 41.63360 | 36971 ft | 513 kts | 163° |
| 2026-04-20 03:35 | 27.44194 | 41.67774 | 36961 ft | 535 kts | 150° |
| 2026-04-20 03:36 | 27.41507 | 41.70739 | 36978 ft | 547 kts | 141° |
| 2026-04-20 03:36 | 27.39164 | 41.74166 | 36969 ft | 558 kts | 131° |
| 2026-04-20 03:36 | 27.35252 | 41.81666 | 36974 ft | 560 kts | 128° |
| 2026-04-20 03:37 | 27.31406 | 41.89275 | 36969 ft | 559 kts | 128° |
| 2026-04-20 03:37 | 27.27497 | 41.96819 | 36972 ft | 558 kts | 129° |
| 2026-04-20 03:38 | 27.23532 | 42.04318 | 36953 ft | 558 kts | 129° |
| 2026-04-20 03:38 | 27.19542 | 42.11822 | 36983 ft | 560 kts | 129° |
| 2026-04-20 03:39 | 27.15551 | 42.19329 | 36992 ft | 564 kts | 129° |
| 2026-04-20 03:39 | 27.11530 | 42.26897 | 36977 ft | 565 kts | 128° |
| 2026-04-20 03:40 | 27.07504 | 42.34470 | 36976 ft | 564 kts | 128° |
| 2026-04-20 03:40 | 27.03480 | 42.42022 | 36954 ft | 562 kts | 128° |
| 2026-04-20 03:41 | 26.99474 | 42.49526 | 36968 ft | 560 kts | 129° |
| 2026-04-20 03:41 | 26.95480 | 42.56992 | 36974 ft | 557 kts | 129° |
| 2026-04-20 03:42 | 26.91498 | 42.64421 | 36983 ft | 554 kts | 128° |
| 2026-04-20 03:42 | 26.87525 | 42.71819 | 36981 ft | 553 kts | 128° |
| 2026-04-20 03:43 | 26.83558 | 42.79197 | 36983 ft | 553 kts | 128° |
| 2026-04-20 03:43 | 26.79611 | 42.86523 | 36981 ft | 553 kts | 128° |
| 2026-04-20 03:44 | 26.75628 | 42.93904 | 36986 ft | 554 kts | 128° |
| 2026-04-20 03:44 | 26.71636 | 43.01291 | 36984 ft | 555 kts | 128° |
| 2026-04-20 03:45 | 26.67625 | 43.08700 | 36974 ft | 557 kts | 128° |
| 2026-04-20 03:45 | 26.63599 | 43.16126 | 36981 ft | 558 kts | 128° |
| 2026-04-20 03:46 | 26.59567 | 43.23553 | 36963 ft | 559 kts | 128° |
| 2026-04-20 03:46 | 26.55546 | 43.30946 | 36973 ft | 560 kts | 127° |
| 2026-04-20 03:47 | 26.51494 | 43.38383 | 36968 ft | 561 kts | 128° |
| 2026-04-20 03:47 | 26.47428 | 43.45833 | 36959 ft | 562 kts | 127° |
| 2026-04-20 03:48 | 26.43356 | 43.53282 | 36971 ft | 563 kts | 127° |
| 2026-04-20 03:48 | 26.39270 | 43.60744 | 36977 ft | 564 kts | 127° |
| 2026-04-20 03:49 | 26.35166 | 43.68229 | 36966 ft | 565 kts | 127° |
| 2026-04-20 03:49 | 26.31065 | 43.75698 | 36968 ft | 564 kts | 127° |
| 2026-04-20 03:50 | 26.27494 | 43.81748 | 36969 ft | 560 kts | 131° |
| 2026-04-20 03:50 | 26.22941 | 43.88783 | 36967 ft | 559 kts | 131° |
| 2026-04-20 03:51 | 26.18366 | 43.95782 | 36962 ft | 559 kts | 131° |
| 2026-04-20 03:51 | 26.13818 | 44.02795 | 36962 ft | 558 kts | 131° |
| 2026-04-20 03:52 | 26.09293 | 44.09802 | 36955 ft | 558 kts | 131° |
| 2026-04-20 03:52 | 26.04770 | 44.16802 | 36961 ft | 557 kts | 131° |
| 2026-04-20 03:53 | 26.00232 | 44.23807 | 36960 ft | 557 kts | 131° |
| 2026-04-20 03:53 | 25.95699 | 44.30790 | 36958 ft | 557 kts | 131° |
| 2026-04-20 03:54 | 25.91156 | 44.37778 | 36959 ft | 558 kts | 131° |
| 2026-04-20 03:54 | 25.86623 | 44.44739 | 36971 ft | 561 kts | 131° |
| 2026-04-20 03:55 | 25.82037 | 44.51772 | 36967 ft | 564 kts | 131° |
| 2026-04-20 03:55 | 25.77427 | 44.58832 | 36971 ft | 566 kts | 131° |
| 2026-04-20 03:56 | 25.72799 | 44.65911 | 36977 ft | 567 kts | 131° |
| 2026-04-20 03:56 | 25.68159 | 44.72998 | 36972 ft | 568 kts | 131° |
| 2026-04-20 03:57 | 25.63513 | 44.80081 | 36971 ft | 568 kts | 131° |
| 2026-04-20 03:57 | 25.58860 | 44.87165 | 36973 ft | 567 kts | 131° |
| 2026-04-20 03:58 | 25.54217 | 44.94222 | 36966 ft | 566 kts | 131° |
| 2026-04-20 03:58 | 25.49610 | 45.01215 | 36960 ft | 565 kts | 131° |
| 2026-04-20 03:59 | 25.44977 | 45.08236 | 36959 ft | 564 kts | 131° |
| 2026-04-20 03:59 | 25.40343 | 45.15247 | 36959 ft | 564 kts | 131° |
| 2026-04-20 04:00 | 25.35708 | 45.22250 | 36965 ft | 564 kts | 131° |
| 2026-04-20 04:00 | 25.31072 | 45.29245 | 36967 ft | 564 kts | 131° |
| 2026-04-20 04:01 | 25.26426 | 45.36242 | 36958 ft | 565 kts | 131° |
| 2026-04-20 04:01 | 25.21772 | 45.43244 | 36961 ft | 565 kts | 131° |
| 2026-04-20 04:02 | 25.17114 | 45.50243 | 36947 ft | 566 kts | 131° |
| 2026-04-20 04:02 | 25.12444 | 45.57248 | 36946 ft | 566 kts | 131° |
| 2026-04-20 04:03 | 25.07801 | 45.64204 | 36964 ft | 567 kts | 131° |
| 2026-04-20 04:03 | 25.03124 | 45.71209 | 36929 ft | 566 kts | 131° |
| 2026-04-20 04:04 | 24.98467 | 45.78213 | 36961 ft | 566 kts | 131° |
| 2026-04-20 04:04 | 24.93810 | 45.85218 | 36955 ft | 566 kts | 131° |
| 2026-04-20 04:05 | 24.89151 | 45.92212 | 36936 ft | 566 kts | 131° |
| 2026-04-20 04:05 | 24.84481 | 45.99208 | 36963 ft | 566 kts | 131° |
| 2026-04-20 04:06 | 24.79808 | 46.06196 | 36962 ft | 567 kts | 131° |
| 2026-04-20 04:06 | 24.75148 | 46.13157 | 36937 ft | 568 kts | 131° |
| 2026-04-20 04:07 | 24.70458 | 46.20150 | 36961 ft | 567 kts | 131° |
| 2026-04-20 04:07 | 24.65776 | 46.27129 | 36958 ft | 567 kts | 131° |
| 2026-04-20 04:08 | 24.61084 | 46.34103 | 36936 ft | 567 kts | 131° |
| 2026-04-20 04:08 | 24.56398 | 46.41062 | 36957 ft | 566 kts | 131° |
| 2026-04-20 04:09 | 24.51709 | 46.48017 | 36950 ft | 567 kts | 131° |
| 2026-04-20 04:09 | 24.47007 | 46.54980 | 36962 ft | 567 kts | 131° |
| 2026-04-20 04:10 | 24.42297 | 46.61944 | 36936 ft | 568 kts | 131° |
| 2026-04-20 04:10 | 24.37588 | 46.68899 | 36947 ft | 568 kts | 131° |
| 2026-04-20 04:11 | 24.32870 | 46.75856 | 36936 ft | 568 kts | 131° |
| 2026-04-20 04:11 | 24.28183 | 46.82760 | 36932 ft | 567 kts | 131° |
| 2026-04-20 04:12 | 24.23476 | 46.89683 | 36931 ft | 566 kts | 131° |
| 2026-04-20 04:12 | 24.18765 | 46.96603 | 36936 ft | 565 kts | 131° |
| 2026-04-20 04:13 | 24.14229 | 47.03632 | 36919 ft | 568 kts | 120° |
| 2026-04-20 04:13 | 24.12676 | 47.07622 | 36948 ft | 570 kts | 108° |
| 2026-04-20 04:13 | 24.11758 | 47.11841 | 36922 ft | 570 kts | 96° |
| 2026-04-20 04:14 | 24.11519 | 47.16160 | 36914 ft | 564 kts | 84° |
| 2026-04-20 04:14 | 24.11749 | 47.20443 | 36952 ft | 564 kts | 82° |
| 2026-04-20 04:14 | 24.12283 | 47.29036 | 36966 ft | 566 kts | 83° |
| 2026-04-20 04:15 | 24.12731 | 47.37609 | 36963 ft | 569 kts | 84° |
| 2026-04-20 04:15 | 24.13102 | 47.46278 | 36988 ft | 571 kts | 84° |
| 2026-04-20 04:16 | 24.13451 | 47.54967 | 36992 ft | 571 kts | 84° |
| 2026-04-20 04:16 | 24.13801 | 47.63656 | 36991 ft | 571 kts | 84° |
| 2026-04-20 04:17 | 24.14154 | 47.72333 | 36965 ft | 570 kts | 84° |
| 2026-04-20 04:17 | 24.14503 | 47.80987 | 36941 ft | 568 kts | 84° |
| 2026-04-20 04:18 | 24.14845 | 47.89613 | 36903 ft | 567 kts | 83° |
| 2026-04-20 04:18 | 24.15181 | 47.98224 | 36898 ft | 565 kts | 84° |
| 2026-04-20 04:19 | 24.15511 | 48.06815 | 36903 ft | 564 kts | 84° |
| 2026-04-20 04:19 | 24.15837 | 48.15393 | 36898 ft | 563 kts | 84° |
| 2026-04-20 04:20 | 24.16157 | 48.23967 | 36907 ft | 563 kts | 84° |
| 2026-04-20 04:20 | 24.16470 | 48.32480 | 36902 ft | 563 kts | 84° |
| 2026-04-20 04:21 | 24.16781 | 48.41044 | 36873 ft | 563 kts | 84° |
| 2026-04-20 04:21 | 24.17086 | 48.49621 | 36891 ft | 563 kts | 84° |
| 2026-04-20 04:22 | 24.17387 | 48.58190 | 36885 ft | 563 kts | 84° |
| 2026-04-20 04:22 | 24.17683 | 48.66763 | 36900 ft | 563 kts | 84° |
| 2026-04-20 04:23 | 24.17975 | 48.75347 | 36882 ft | 564 kts | 84° |
| 2026-04-20 04:23 | 24.18261 | 48.83930 | 36877 ft | 564 kts | 84° |
| 2026-04-20 04:24 | 24.17828 | 48.92534 | 36889 ft | 569 kts | 96° |
| 2026-04-20 04:24 | 24.16125 | 49.00997 | 36885 ft | 570 kts | 105° |
| 2026-04-20 04:25 | 24.13895 | 49.09328 | 36863 ft | 570 kts | 105° |
| 2026-04-20 04:25 | 24.11664 | 49.17654 | 36869 ft | 569 kts | 105° |
| 2026-04-20 04:26 | 24.09485 | 49.25971 | 36876 ft | 568 kts | 105° |
| 2026-04-20 04:26 | 24.07329 | 49.34280 | 36881 ft | 567 kts | 105° |
| 2026-04-20 04:27 | 24.05172 | 49.42583 | 36876 ft | 567 kts | 105° |
| 2026-04-20 04:27 | 24.03017 | 49.50836 | 36866 ft | 567 kts | 105° |
| 2026-04-20 04:28 | 24.00843 | 49.59130 | 36878 ft | 566 kts | 104° |
| 2026-04-20 04:28 | 23.98666 | 49.67415 | 36871 ft | 567 kts | 105° |
| 2026-04-20 04:29 | 23.96484 | 49.75704 | 36890 ft | 567 kts | 104° |
| 2026-04-20 04:29 | 23.94297 | 49.83991 | 36875 ft | 567 kts | 105° |
| 2026-04-20 04:30 | 23.92101 | 49.92289 | 36857 ft | 568 kts | 104° |
| 2026-04-20 04:30 | 23.89904 | 50.00577 | 36868 ft | 567 kts | 104° |
| 2026-04-20 04:31 | 23.87702 | 50.08861 | 36869 ft | 567 kts | 104° |
| 2026-04-20 04:31 | 23.85498 | 50.17135 | 36863 ft | 567 kts | 104° |
| 2026-04-20 04:32 | 23.83301 | 50.25359 | 36869 ft | 567 kts | 104° |
| 2026-04-20 04:32 | 23.81091 | 50.33619 | 36841 ft | 567 kts | 104° |
| 2026-04-20 04:33 | 23.78875 | 50.41878 | 36859 ft | 566 kts | 104° |
| 2026-04-20 04:33 | 23.76658 | 50.50120 | 36857 ft | 566 kts | 104° |
| 2026-04-20 04:34 | 23.74814 | 50.56964 | 36861 ft | 565 kts | 104° |
| 2026-04-20 04:34 | 23.72590 | 50.65199 | 36867 ft | 565 kts | 104° |
| 2026-04-20 04:35 | 23.70364 | 50.73423 | 36864 ft | 565 kts | 104° |
| 2026-04-20 04:35 | 23.68134 | 50.81643 | 36855 ft | 564 kts | 104° |
| 2026-04-20 04:36 | 23.64785 | 50.93953 | 36865 ft | 564 kts | 104° |
| 2026-04-20 04:37 | 23.62543 | 51.02173 | 36865 ft | 565 kts | 104° |
| 2026-04-20 04:37 | 23.60298 | 51.10382 | 36864 ft | 565 kts | 104° |
| 2026-04-20 04:38 | 23.58049 | 51.18588 | 36865 ft | 565 kts | 104° |
| 2026-04-20 04:38 | 23.55796 | 51.26787 | 36863 ft | 564 kts | 104° |
| 2026-04-20 04:39 | 23.53540 | 51.34981 | 36880 ft | 564 kts | 104° |
| 2026-04-20 04:39 | 23.51279 | 51.43176 | 36862 ft | 565 kts | 104° |
| 2026-04-20 04:40 | 23.49012 | 51.51373 | 36865 ft | 565 kts | 104° |
| 2026-04-20 04:40 | 23.46755 | 51.59515 | 36868 ft | 565 kts | 104° |
| 2026-04-20 04:41 | 23.44477 | 51.67716 | 36866 ft | 564 kts | 104° |
| 2026-04-20 04:41 | 23.42202 | 51.75890 | 36870 ft | 564 kts | 104° |
| 2026-04-20 04:42 | 23.39922 | 51.84060 | 36874 ft | 564 kts | 104° |
| 2026-04-20 04:42 | 23.37642 | 51.92215 | 36856 ft | 563 kts | 104° |
| 2026-04-20 04:43 | 23.35355 | 52.00375 | 36867 ft | 563 kts | 104° |
| 2026-04-20 04:43 | 23.33066 | 52.08524 | 36878 ft | 562 kts | 104° |
| 2026-04-20 04:44 | 23.30776 | 52.16658 | 36870 ft | 562 kts | 104° |
| 2026-04-20 04:44 | 23.28486 | 52.24776 | 36868 ft | 561 kts | 104° |
| 2026-04-20 04:45 | 23.26192 | 52.32891 | 36876 ft | 561 kts | 104° |
| 2026-04-20 04:45 | 23.23893 | 52.41008 | 36867 ft | 561 kts | 104° |
| 2026-04-20 04:46 | 23.21591 | 52.49116 | 36873 ft | 561 kts | 104° |
| 2026-04-20 04:46 | 23.19287 | 52.57214 | 36874 ft | 561 kts | 104° |
| 2026-04-20 04:47 | 23.16993 | 52.65259 | 36875 ft | 560 kts | 104° |
| 2026-04-20 04:47 | 23.14683 | 52.73344 | 36863 ft | 560 kts | 104° |
| 2026-04-20 04:48 | 23.12373 | 52.81410 | 36876 ft | 559 kts | 104° |
| 2026-04-20 04:48 | 23.10060 | 52.89468 | 36867 ft | 558 kts | 104° |
| 2026-04-20 04:49 | 23.07747 | 52.97514 | 36866 ft | 558 kts | 104° |
| 2026-04-20 04:49 | 23.05432 | 53.05547 | 36882 ft | 557 kts | 104° |
| 2026-04-20 04:50 | 23.03114 | 53.13575 | 36881 ft | 557 kts | 104° |
| 2026-04-20 04:50 | 23.00795 | 53.21589 | 36878 ft | 557 kts | 104° |
| 2026-04-20 04:51 | 22.98484 | 53.29559 | 36880 ft | 556 kts | 104° |
| 2026-04-20 04:51 | 22.96156 | 53.37568 | 36876 ft | 557 kts | 104° |
| 2026-04-20 04:52 | 22.93822 | 53.45584 | 36888 ft | 556 kts | 104° |
| 2026-04-20 04:52 | 22.91484 | 53.53599 | 36875 ft | 556 kts | 104° |
| 2026-04-20 04:53 | 22.89147 | 53.61593 | 36884 ft | 556 kts | 104° |
| 2026-04-20 04:53 | 22.86803 | 53.69592 | 36884 ft | 556 kts | 104° |
| 2026-04-20 04:54 | 22.84455 | 53.77591 | 36893 ft | 557 kts | 104° |
| 2026-04-20 04:54 | 22.82103 | 53.85590 | 36883 ft | 557 kts | 104° |
| 2026-04-20 04:55 | 22.79801 | 53.93542 | 36866 ft | 554 kts | 100° |
| 2026-04-20 04:55 | 22.78939 | 54.01730 | 36895 ft | 541 kts | 83° |
| 2026-04-20 04:56 | 22.79888 | 54.09680 | 36899 ft | 527 kts | 70° |
| 2026-04-20 04:56 | 22.81563 | 54.17426 | 36905 ft | 528 kts | 69° |
| 2026-04-20 04:57 | 22.83215 | 54.25202 | 36903 ft | 530 kts | 70° |
| 2026-04-20 04:57 | 22.84801 | 54.32979 | 36904 ft | 532 kts | 70° |
| 2026-04-20 04:58 | 22.86374 | 54.40825 | 36889 ft | 532 kts | 71° |
| 2026-04-20 04:58 | 22.87939 | 54.48654 | 36895 ft | 531 kts | 71° |
| 2026-04-20 04:59 | 22.89506 | 54.56477 | 36899 ft | 530 kts | 71° |
| 2026-04-20 04:59 | 22.91066 | 54.64282 | 36891 ft | 529 kts | 71° |
| 2026-04-20 05:00 | 22.92621 | 54.72080 | 36891 ft | 528 kts | 71° |
| 2026-04-20 05:00 | 22.94165 | 54.79850 | 36902 ft | 526 kts | 71° |
| 2026-04-20 05:01 | 22.95704 | 54.87610 | 36896 ft | 526 kts | 71° |
| 2026-04-20 05:01 | 22.97236 | 54.95360 | 36893 ft | 525 kts | 71° |
| 2026-04-20 05:02 | 22.98762 | 55.03098 | 36894 ft | 524 kts | 71° |
| 2026-04-20 05:02 | 23.00282 | 55.10829 | 36890 ft | 523 kts | 71° |
| 2026-04-20 05:03 | 23.02080 | 55.18401 | 36895 ft | 506 kts | 57° |
| 2026-04-20 05:03 | 23.03932 | 55.21549 | 36894 ft | 486 kts | 39° |
| 2026-04-20 05:03 | 23.06378 | 55.23987 | 36909 ft | 473 kts | 28° |
| 2026-04-20 05:04 | 23.12132 | 55.27109 | 36904 ft | 454 kts | 7° |
| 2026-04-20 05:04 | 23.18303 | 55.28791 | 36912 ft | 460 kts | 7° |
| 2026-04-20 05:05 | 23.24486 | 55.30530 | 36893 ft | 461 kts | 8° |
| 2026-04-20 05:05 | 23.30624 | 55.32327 | 36893 ft | 453 kts | 8° |
| 2026-04-20 05:06 | 23.36702 | 55.34115 | 36907 ft | 452 kts | 8° |
| 2026-04-20 05:06 | 23.42787 | 55.35904 | 36921 ft | 453 kts | 8° |
| 2026-04-20 05:07 | 23.48893 | 55.37701 | 36903 ft | 455 kts | 8° |
| 2026-04-20 05:07 | 23.55006 | 55.39504 | 36904 ft | 456 kts | 8° |
| 2026-04-20 05:08 | 23.61142 | 55.41328 | 36901 ft | 457 kts | 8° |
| 2026-04-20 05:08 | 23.67246 | 55.43146 | 36903 ft | 458 kts | 8° |
| 2026-04-20 05:09 | 23.73397 | 55.44979 | 36913 ft | 458 kts | 8° |
| 2026-04-20 05:09 | 23.79553 | 55.46814 | 36903 ft | 459 kts | 8° |
| 2026-04-20 05:10 | 23.85717 | 55.48652 | 36790 ft | 460 kts | 8° |
| 2026-04-20 05:10 | 23.88851 | 55.49580 | 35901 ft | 469 kts | 9° |
| 2026-04-20 05:10 | 23.91996 | 55.50515 | 35104 ft | 469 kts | 10° |
| 2026-04-20 05:10 | 23.95158 | 55.51457 | 34230 ft | 472 kts | 11° |
| 2026-04-20 05:11 | 23.98335 | 55.52403 | 33271 ft | 475 kts | 12° |
| 2026-04-20 05:11 | 24.01541 | 55.53358 | 32301 ft | 478 kts | 13° |
| 2026-04-20 05:11 | 24.04763 | 55.54313 | 31321 ft | 482 kts | 13° |
| 2026-04-20 05:11 | 24.08014 | 55.55273 | 30484 ft | 484 kts | 13° |
| 2026-04-20 05:12 | 24.11260 | 55.56232 | 29788 ft | 482 kts | 13° |
| 2026-04-20 05:12 | 24.14486 | 55.57187 | 29023 ft | 479 kts | 13° |
| 2026-04-20 05:12 | 24.17695 | 55.58138 | 28322 ft | 476 kts | 13° |
| 2026-04-20 05:12 | 24.20882 | 55.59083 | 27658 ft | 472 kts | 14° |
| 2026-04-20 05:13 | 24.23985 | 55.60261 | 26985 ft | 471 kts | 22° |
| 2026-04-20 05:13 | 24.26890 | 55.61914 | 26355 ft | 469 kts | 30° |
| 2026-04-20 05:13 | 24.29551 | 55.63893 | 25737 ft | 468 kts | 37° |
| 2026-04-20 05:13 | 24.31990 | 55.66248 | 25101 ft | 466 kts | 41° |
| 2026-04-20 05:14 | 24.34370 | 55.68645 | 24461 ft | 464 kts | 40° |
| 2026-04-20 05:14 | 24.36770 | 55.71000 | 23825 ft | 462 kts | 40° |
| 2026-04-20 05:14 | 24.39180 | 55.73323 | 23134 ft | 460 kts | 39° |
| 2026-04-20 05:14 | 24.41590 | 55.75627 | 22332 ft | 459 kts | 39° |
| 2026-04-20 05:15 | 24.43994 | 55.77922 | 21660 ft | 456 kts | 39° |
| 2026-04-20 05:15 | 24.46374 | 55.80200 | 21023 ft | 451 kts | 40° |
| 2026-04-20 05:15 | 24.48717 | 55.82447 | 20527 ft | 444 kts | 40° |
| 2026-04-20 05:15 | 24.51016 | 55.84656 | 20136 ft | 434 kts | 40° |
| 2026-04-20 05:16 | 24.53270 | 55.86823 | 19696 ft | 427 kts | 40° |
| 2026-04-20 05:16 | 24.55492 | 55.88959 | 19178 ft | 423 kts | 40° |
| 2026-04-20 05:16 | 24.57720 | 55.91034 | 18571 ft | 416 kts | 36° |
| 2026-04-20 05:16 | 24.60248 | 55.92574 | 17851 ft | 416 kts | 20° |
| 2026-04-20 05:17 | 24.62071 | 55.93192 | 17468 ft | 413 kts | 12° |
| 2026-04-20 05:17 | 24.65840 | 55.93573 | 16752 ft | 404 kts | 359° |
| 2026-04-20 05:17 | 24.67694 | 55.93565 | 16374 ft | 401 kts | 359° |
| 2026-04-20 05:17 | 24.70477 | 55.93593 | 15811 ft | 398 kts | 0° |
| 2026-04-20 05:18 | 24.73198 | 55.93658 | 15450 ft | 377 kts | 1° |
| 2026-04-20 05:18 | 24.75704 | 55.93712 | 15226 ft | 343 kts | 358° |
| 2026-04-20 05:18 | 24.77943 | 55.93261 | 14956 ft | 316 kts | 339° |
| 2026-04-20 05:18 | 24.79863 | 55.92215 | 14501 ft | 300 kts | 326° |
| 2026-04-20 05:19 | 24.81489 | 55.90821 | 13906 ft | 293 kts | 320° |
| 2026-04-20 05:19 | 24.83025 | 55.89366 | 13177 ft | 289 kts | 320° |
| 2026-04-20 05:19 | 24.84532 | 55.87918 | 12466 ft | 285 kts | 320° |
| 2026-04-20 05:19 | 24.85995 | 55.86513 | 11786 ft | 280 kts | 320° |
| 2026-04-20 05:20 | 24.87454 | 55.85118 | 11110 ft | 276 kts | 320° |
| 2026-04-20 05:20 | 24.88898 | 55.83743 | 10457 ft | 272 kts | 320° |
| 2026-04-20 05:20 | 24.90322 | 55.82390 | 9821 ft | 268 kts | 320° |
| 2026-04-20 05:20 | 24.91729 | 55.81056 | 9103 ft | 266 kts | 320° |
| 2026-04-20 05:21 | 24.93129 | 55.79730 | 8346 ft | 266 kts | 320° |
| 2026-04-20 05:21 | 24.94527 | 55.78406 | 7944 ft | 263 kts | 320° |
| 2026-04-20 05:21 | 24.95919 | 55.77090 | 7625 ft | 264 kts | 320° |
| 2026-04-20 05:21 | 24.97312 | 55.75773 | 7292 ft | 264 kts | 320° |
| 2026-04-20 05:22 | 24.98706 | 55.74454 | 6979 ft | 264 kts | 320° |
| 2026-04-20 05:22 | 25.00100 | 55.73134 | 6661 ft | 264 kts | 320° |
| 2026-04-20 05:22 | 25.01492 | 55.71816 | 6394 ft | 262 kts | 320° |
| 2026-04-20 05:22 | 25.02855 | 55.70525 | 6236 ft | 255 kts | 320° |
| 2026-04-20 05:23 | 25.04176 | 55.69274 | 6107 ft | 245 kts | 320° |
| 2026-04-20 05:23 | 25.05447 | 55.68071 | 5993 ft | 235 kts | 320° |
| 2026-04-20 05:23 | 25.06670 | 55.66912 | 5763 ft | 230 kts | 320° |
| 2026-04-20 05:23 | 25.07869 | 55.65777 | 5552 ft | 224 kts | 319° |
| 2026-04-20 05:24 | 25.09032 | 55.64674 | 5279 ft | 222 kts | 319° |
| 2026-04-20 05:24 | 25.10146 | 55.63530 | 5011 ft | 215 kts | 310° |
| 2026-04-20 05:24 | 25.11007 | 55.62212 | 4686 ft | 207 kts | 303° |
| 2026-04-20 05:24 | 25.11747 | 55.60897 | 4332 ft | 197 kts | 302° |
| 2026-04-20 05:25 | 25.12441 | 55.59641 | 4015 ft | 185 kts | 302° |
| 2026-04-20 05:25 | 25.13082 | 55.58482 | 3789 ft | 172 kts | 302° |
| 2026-04-20 05:25 | 25.13697 | 55.57371 | 3571 ft | 166 kts | 302° |
| 2026-04-20 05:25 | 25.14278 | 55.56322 | 3373 ft | 154 kts | 302° |
| 2026-04-20 05:26 | 25.14620 | 55.55702 | 3263 ft | 153 kts | 302° |
| 2026-04-20 05:26 | 25.14999 | 55.55020 | 3130 ft | 152 kts | 302° |
| 2026-04-20 05:26 | 25.15201 | 55.54655 | 3053 ft | 152 kts | 302° |
| 2026-04-20 05:27 | 25.15602 | 55.53932 | 2912 ft | 152 kts | 301° |
| 2026-04-20 05:27 | 25.16152 | 55.52939 | 2730 ft | 152 kts | 302° |
| 2026-04-20 05:27 | 25.16703 | 55.51941 | 2534 ft | 151 kts | 302° |
| 2026-04-20 05:27 | 25.17245 | 55.50963 | 2320 ft | 147 kts | 302° |
| 2026-04-20 05:28 | 25.17776 | 55.50007 | 2141 ft | 149 kts | 302° |
| 2026-04-20 05:28 | 25.18325 | 55.49014 | 1946 ft | 150 kts | 302° |
| 2026-04-20 05:28 | 25.18858 | 55.48052 | 1763 ft | 148 kts | 301° |
| 2026-04-20 05:28 | 25.19396 | 55.47080 | 1572 ft | 148 kts | 301° |
| 2026-04-20 05:29 | 25.19933 | 55.46111 | 1379 ft | 148 kts | 301° |
| 2026-04-20 05:29 | 25.20471 | 55.45138 | 1204 ft | 149 kts | 301° |
| 2026-04-20 05:29 | 25.21009 | 55.44164 | 991 ft | 148 kts | 301° |
| 2026-04-20 05:29 | 25.21545 | 55.43198 | 806 ft | 147 kts | 301° |
| 2026-04-20 05:30 | 25.22080 | 55.42231 | 636 ft | 148 kts | 301° |
| 2026-04-20 05:30 | 25.22610 | 55.41250 | 426 ft | 149 kts | 300° |
| 2026-04-20 05:30 | 25.23148 | 55.40276 | 218 ft | 148 kts | 301° |
| 2026-04-20 05:30 | 25.23684 | 55.39311 | 46 ft | 147 kts | 301° |
| 2026-04-20 05:31 | 25.24180 | 55.38423 | 31 ft | 119 kts | 302° |
| 2026-04-20 05:31 | 25.24531 | 55.37790 | 28 ft | 74 kts | 301° |
| 2026-04-20 05:31 | 25.24733 | 55.37422 | 27 ft | 46 kts | 299° |
| 2026-04-20 05:31 | 25.24781 | 55.37200 | 29 ft | 18 kts | 274° |
| 2026-04-20 05:32 | 25.24788 | 55.37062 | 27 ft | 18 kts | 272° |
| 2026-04-20 05:32 | 25.24769 | 55.36956 | 27 ft | 9 kts | 222° |
| 2026-04-20 05:32 | 25.24710 | 55.36919 | 26 ft | 10 kts | 211° |
| 2026-04-20 05:32 | 25.24647 | 55.36878 | 28 ft | 11 kts | 211° |
| 2026-04-20 05:33 | 25.24579 | 55.36833 | 31 ft | 12 kts | 211° |
| 2026-04-20 05:33 | 25.24508 | 55.36786 | 29 ft | 12 kts | 212° |
| 2026-04-20 05:33 | 25.24437 | 55.36738 | 29 ft | 12 kts | 214° |
| 2026-04-20 05:33 | 25.24390 | 55.36662 | 29 ft | 12 kts | 246° |
| 2026-04-20 05:34 | 25.24369 | 55.36570 | 28 ft | 12 kts | 264° |
| 2026-04-20 05:34 | 25.24385 | 55.36478 | 27 ft | 13 kts | 292° |
| 2026-04-20 05:34 | 25.24476 | 55.36305 | 31 ft | 13 kts | 301° |
| 2026-04-20 05:35 | 25.24525 | 55.36217 | 28 ft | 13 kts | 302° |
| 2026-04-20 05:35 | 25.24574 | 55.36129 | 30 ft | 13 kts | 301° |
| 2026-04-20 05:35 | 25.24613 | 55.36085 | 30 ft | 7 kts | 345° |
| 2026-04-20 05:35 | 25.24663 | 55.36105 | 28 ft | 8 kts | 32° |
| 2026-04-20 05:36 | 25.24708 | 55.36137 | 31 ft | 6 kts | 32° |
| 2026-04-20 05:36 | 25.24737 | 55.36156 | 30 ft | 3 kts | 31° |
| 2026-04-20 05:36 | 25.24742 | 55.36159 | 30 ft | 0 kts | 31° |